sensor_id;sensor_type;location;lat;lon;timestamp;temperature;humidity
2621;DHT22;1320;48.128;11.592;2023-03-12T00:01:34;3.90;90.60
2621;DHT22;1320;48.128;11.592;2023-03-12T00:04:01;3.90;90.20
2621;DHT22;1320;48.128;11.592;2023-03-12T00:06:27;3.90;90.20
2621;DHT22;1320;48.128;11.592;2023-03-12T00:08:52;3.90;90.20
2621;DHT22;1320;48.128;11.592;2023-03-12T00:11:19;3.90;90.20
2621;DHT22;1320;48.128;11.592;2023-03-12T00:13:49;3.80;90.20
2621;DHT22;1320;48.128;11.592;2023-03-12T00:16:15;3.80;90.30
2621;DHT22;1320;48.128;11.592;2023-03-12T00:18:41;3.80;90.20
2621;DHT22;1320;48.128;11.592;2023-03-12T00:21:07;3.80;90.20
2621;DHT22;1320;48.128;11.592;2023-03-12T00:23:34;3.80;90.30
2621;DHT22;1320;48.128;11.592;2023-03-12T00:26:01;3.80;90.40
2621;DHT22;1320;48.128;11.592;2023-03-12T00:28:27;3.80;90.40
2621;DHT22;1320;48.128;11.592;2023-03-12T00:30:53;3.90;90.40
2621;DHT22;1320;48.128;11.592;2023-03-12T00:33:18;3.90;90.40
2621;DHT22;1320;48.128;11.592;2023-03-12T00:35:44;3.90;90.40
2621;DHT22;1320;48.128;11.592;2023-03-12T00:38:10;4.00;90.40
2621;DHT22;1320;48.128;11.592;2023-03-12T00:40:36;3.90;90.50
2621;DHT22;1320;48.128;11.592;2023-03-12T00:43:03;3.80;90.70
2621;DHT22;1320;48.128;11.592;2023-03-12T00:45:29;3.80;90.90
2621;DHT22;1320;48.128;11.592;2023-03-12T00:47:55;3.80;91.00
2621;DHT22;1320;48.128;11.592;2023-03-12T00:50:20;3.70;91.00
2621;DHT22;1320;48.128;11.592;2023-03-12T00:52:46;3.70;91.10
2621;DHT22;1320;48.128;11.592;2023-03-12T00:55:12;3.70;91.20
2621;DHT22;1320;48.128;11.592;2023-03-12T00:57:37;3.60;91.30
2621;DHT22;1320;48.128;11.592;2023-03-12T01:00:04;3.50;91.40
2621;DHT22;1320;48.128;11.592;2023-03-12T01:02:35;3.50;91.40
2621;DHT22;1320;48.128;11.592;2023-03-12T01:05:00;3.50;91.50
2621;DHT22;1320;48.128;11.592;2023-03-12T01:07:26;3.40;91.80
2621;DHT22;1320;48.128;11.592;2023-03-12T01:09:52;3.40;91.60
2621;DHT22;1320;48.128;11.592;2023-03-12T01:12:17;3.40;91.60
2621;DHT22;1320;48.128;11.592;2023-03-12T01:14:43;3.40;91.70
2621;DHT22;1320;48.128;11.592;2023-03-12T01:17:09;3.40;91.80
2621;DHT22;1320;48.128;11.592;2023-03-12T01:19:34;3.40;91.80
2621;DHT22;1320;48.128;11.592;2023-03-12T01:22:00;3.30;91.80
2621;DHT22;1320;48.128;11.592;2023-03-12T01:24:26;3.30;91.90
2621;DHT22;1320;48.128;11.592;2023-03-12T01:26:51;3.20;91.90
2621;DHT22;1320;48.128;11.592;2023-03-12T01:29:17;3.20;92.00
2621;DHT22;1320;48.128;11.592;2023-03-12T01:31:42;3.30;92.10
2621;DHT22;1320;48.128;11.592;2023-03-12T01:34:10;3.30;92.10
2621;DHT22;1320;48.128;11.592;2023-03-12T01:36:36;3.40;92.20
2621;DHT22;1320;48.128;11.592;2023-03-12T01:39:03;3.40;92.00
2621;DHT22;1320;48.128;11.592;2023-03-12T01:41:30;3.40;91.90
2621;DHT22;1320;48.128;11.592;2023-03-12T01:44:00;3.50;92.00
2621;DHT22;1320;48.128;11.592;2023-03-12T01:46:36;3.60;91.90
2621;DHT22;1320;48.128;11.592;2023-03-12T01:52:04;3.60;91.90
2621;DHT22;1320;48.128;11.592;2023-03-12T01:54:49;3.60;91.90
2621;DHT22;1320;48.128;11.592;2023-03-12T01:57:21;3.60;91.90
2621;DHT22;1320;48.128;11.592;2023-03-12T01:59:55;3.70;91.80
2621;DHT22;1320;48.128;11.592;2023-03-12T02:02:22;3.70;91.80
2621;DHT22;1320;48.128;11.592;2023-03-12T02:05:00;3.70;91.80
2621;DHT22;1320;48.128;11.592;2023-03-12T02:07:27;3.70;91.70
2621;DHT22;1320;48.128;11.592;2023-03-12T02:09:53;3.80;91.80
2621;DHT22;1320;48.128;11.592;2023-03-12T02:12:19;3.80;91.70
2621;DHT22;1320;48.128;11.592;2023-03-12T02:14:44;3.80;91.90
2621;DHT22;1320;48.128;11.592;2023-03-12T02:17:10;3.70;91.90
2621;DHT22;1320;48.128;11.592;2023-03-12T02:22:16;3.60;92.00
2621;DHT22;1320;48.128;11.592;2023-03-12T02:24:56;3.60;91.90
2621;DHT22;1320;48.128;11.592;2023-03-12T02:27:22;3.50;92.00
2621;DHT22;1320;48.128;11.592;2023-03-12T02:29:49;3.50;92.10
2621;DHT22;1320;48.128;11.592;2023-03-12T02:32:27;3.50;92.10
2621;DHT22;1320;48.128;11.592;2023-03-12T02:34:55;3.50;92.10
2621;DHT22;1320;48.128;11.592;2023-03-12T02:37:21;3.50;92.20
2621;DHT22;1320;48.128;11.592;2023-03-12T02:39:55;3.50;92.20
2621;DHT22;1320;48.128;11.592;2023-03-12T02:42:23;3.40;92.30
2621;DHT22;1320;48.128;11.592;2023-03-12T02:44:49;3.40;92.40
2621;DHT22;1320;48.128;11.592;2023-03-12T02:47:15;3.40;92.40
2621;DHT22;1320;48.128;11.592;2023-03-12T02:49:41;3.30;92.50
2621;DHT22;1320;48.128;11.592;2023-03-12T02:52:06;3.30;92.60
2621;DHT22;1320;48.128;11.592;2023-03-12T02:54:32;3.30;92.70
2621;DHT22;1320;48.128;11.592;2023-03-12T02:56:58;3.20;92.80
2621;DHT22;1320;48.128;11.592;2023-03-12T02:59:24;3.20;93.00
2621;DHT22;1320;48.128;11.592;2023-03-12T03:01:53;3.20;93.00
2621;DHT22;1320;48.128;11.592;2023-03-12T03:04:19;3.20;93.10
2621;DHT22;1320;48.128;11.592;2023-03-12T03:06:45;3.10;93.20
2621;DHT22;1320;48.128;11.592;2023-03-12T03:09:12;3.20;93.30
2621;DHT22;1320;48.128;11.592;2023-03-12T03:11:38;3.20;93.30
2621;DHT22;1320;48.128;11.592;2023-03-12T03:14:04;3.30;93.40
2621;DHT22;1320;48.128;11.592;2023-03-12T03:16:31;3.20;93.50
2621;DHT22;1320;48.128;11.592;2023-03-12T03:18:57;3.30;93.60
2621;DHT22;1320;48.128;11.592;2023-03-12T03:21:23;3.40;93.70
2621;DHT22;1320;48.128;11.592;2023-03-12T03:23:49;3.40;93.70
2621;DHT22;1320;48.128;11.592;2023-03-12T03:26:19;3.40;93.70
2621;DHT22;1320;48.128;11.592;2023-03-12T03:28:45;3.40;94.20
2621;DHT22;1320;48.128;11.592;2023-03-12T03:31:11;3.40;94.00
2621;DHT22;1320;48.128;11.592;2023-03-12T03:33:37;3.40;94.30
2621;DHT22;1320;48.128;11.592;2023-03-12T03:36:06;3.50;94.40
2621;DHT22;1320;48.128;11.592;2023-03-12T03:38:32;3.50;94.60
2621;DHT22;1320;48.128;11.592;2023-03-12T03:40:59;3.60;94.80
2621;DHT22;1320;48.128;11.592;2023-03-12T03:43:25;3.60;95.00
2621;DHT22;1320;48.128;11.592;2023-03-12T03:46:01;3.60;95.10
2621;DHT22;1320;48.128;11.592;2023-03-12T03:48:27;3.70;95.20
2621;DHT22;1320;48.128;11.592;2023-03-12T03:51:02;3.70;95.40
2621;DHT22;1320;48.128;11.592;2023-03-12T03:53:29;3.80;95.60
2621;DHT22;1320;48.128;11.592;2023-03-12T03:55:55;3.80;95.60
2621;DHT22;1320;48.128;11.592;2023-03-12T03:58:21;3.80;95.80
2621;DHT22;1320;48.128;11.592;2023-03-12T04:00:46;3.90;95.90
2621;DHT22;1320;48.128;11.592;2023-03-12T04:03:12;3.90;96.00
2621;DHT22;1320;48.128;11.592;2023-03-12T04:05:39;3.90;96.10
2621;DHT22;1320;48.128;11.592;2023-03-12T04:08:05;4.00;96.20
2621;DHT22;1320;48.128;11.592;2023-03-12T04:10:31;4.00;96.30
2621;DHT22;1320;48.128;11.592;2023-03-12T04:12:57;4.10;96.30
2621;DHT22;1320;48.128;11.592;2023-03-12T04:15:22;4.10;96.40
2621;DHT22;1320;48.128;11.592;2023-03-12T04:17:48;4.10;96.50
2621;DHT22;1320;48.128;11.592;2023-03-12T04:20:14;4.10;96.50
2621;DHT22;1320;48.128;11.592;2023-03-12T04:22:39;4.10;96.60
2621;DHT22;1320;48.128;11.592;2023-03-12T04:25:06;4.10;96.70
2621;DHT22;1320;48.128;11.592;2023-03-12T04:27:32;4.10;96.90
2621;DHT22;1320;48.128;11.592;2023-03-12T04:29:58;4.10;97.00
2621;DHT22;1320;48.128;11.592;2023-03-12T04:32:24;4.00;97.20
2621;DHT22;1320;48.128;11.592;2023-03-12T04:34:49;4.00;97.30
2621;DHT22;1320;48.128;11.592;2023-03-12T04:37:15;4.10;97.40
2621;DHT22;1320;48.128;11.592;2023-03-12T04:39:42;4.10;97.50
2621;DHT22;1320;48.128;11.592;2023-03-12T04:42:09;4.10;97.50
2621;DHT22;1320;48.128;11.592;2023-03-12T04:44:35;4.20;97.70
2621;DHT22;1320;48.128;11.592;2023-03-12T04:47:02;4.20;97.80
2621;DHT22;1320;48.128;11.592;2023-03-12T04:49:27;4.20;97.80
2621;DHT22;1320;48.128;11.592;2023-03-12T04:51:53;4.30;97.90
2621;DHT22;1320;48.128;11.592;2023-03-12T04:54:20;4.30;97.90
2621;DHT22;1320;48.128;11.592;2023-03-12T04:56:46;4.30;98.30
2621;DHT22;1320;48.128;11.592;2023-03-12T04:59:12;4.40;99.90
2621;DHT22;1320;48.128;11.592;2023-03-12T05:01:38;4.40;99.90
2621;DHT22;1320;48.128;11.592;2023-03-12T05:04:05;4.50;99.90
2621;DHT22;1320;48.128;11.592;2023-03-12T05:06:31;4.50;99.90
2621;DHT22;1320;48.128;11.592;2023-03-12T05:08:57;4.50;99.90
2621;DHT22;1320;48.128;11.592;2023-03-12T05:11:23;4.50;99.90
2621;DHT22;1320;48.128;11.592;2023-03-12T05:13:49;4.50;99.50
2621;DHT22;1320;48.128;11.592;2023-03-12T05:16:15;4.50;98.70
2621;DHT22;1320;48.128;11.592;2023-03-12T05:18:42;4.60;98.70
2621;DHT22;1320;48.128;11.592;2023-03-12T05:21:13;4.60;98.60
2621;DHT22;1320;48.128;11.592;2023-03-12T05:23:39;4.60;98.50
2621;DHT22;1320;48.128;11.592;2023-03-12T05:26:14;4.60;98.30
2621;DHT22;1320;48.128;11.592;2023-03-12T05:28:40;4.50;98.30
2621;DHT22;1320;48.128;11.592;2023-03-12T05:31:08;4.50;98.30
2621;DHT22;1320;48.128;11.592;2023-03-12T05:33:35;4.40;98.10
2621;DHT22;1320;48.128;11.592;2023-03-12T05:36:01;4.40;98.10
2621;DHT22;1320;48.128;11.592;2023-03-12T05:38:27;4.30;98.10
2621;DHT22;1320;48.128;11.592;2023-03-12T05:40:54;4.30;98.00
2621;DHT22;1320;48.128;11.592;2023-03-12T05:43:21;4.30;98.10
2621;DHT22;1320;48.128;11.592;2023-03-12T05:45:48;4.30;98.10
2621;DHT22;1320;48.128;11.592;2023-03-12T05:48:14;4.30;98.30
2621;DHT22;1320;48.128;11.592;2023-03-12T05:50:40;4.20;98.20
2621;DHT22;1320;48.128;11.592;2023-03-12T05:53:05;4.20;98.40
2621;DHT22;1320;48.128;11.592;2023-03-12T05:55:35;4.20;98.40
2621;DHT22;1320;48.128;11.592;2023-03-12T05:58:02;4.20;98.50
2621;DHT22;1320;48.128;11.592;2023-03-12T06:00:28;4.20;98.60
2621;DHT22;1320;48.128;11.592;2023-03-12T06:02:54;4.20;98.70
2621;DHT22;1320;48.128;11.592;2023-03-12T06:05:19;4.20;98.90
2621;DHT22;1320;48.128;11.592;2023-03-12T06:07:45;4.30;98.90
2621;DHT22;1320;48.128;11.592;2023-03-12T06:10:11;4.30;99.00
2621;DHT22;1320;48.128;11.592;2023-03-12T06:12:37;4.30;99.00
2621;DHT22;1320;48.128;11.592;2023-03-12T06:15:03;4.30;99.00
2621;DHT22;1320;48.128;11.592;2023-03-12T06:17:29;4.40;99.10
2621;DHT22;1320;48.128;11.592;2023-03-12T06:19:56;4.40;99.10
2621;DHT22;1320;48.128;11.592;2023-03-12T06:22:22;4.40;99.20
2621;DHT22;1320;48.128;11.592;2023-03-12T06:24:48;4.50;99.30
2621;DHT22;1320;48.128;11.592;2023-03-12T06:27:15;4.50;99.10
2621;DHT22;1320;48.128;11.592;2023-03-12T06:29:40;4.60;99.30
2621;DHT22;1320;48.128;11.592;2023-03-12T06:32:07;4.60;99.20
2621;DHT22;1320;48.128;11.592;2023-03-12T06:34:33;4.60;99.10
2621;DHT22;1320;48.128;11.592;2023-03-12T06:36:59;4.60;99.10
2621;DHT22;1320;48.128;11.592;2023-03-12T06:39:24;4.60;99.10
2621;DHT22;1320;48.128;11.592;2023-03-12T06:41:50;4.70;99.20
2621;DHT22;1320;48.128;11.592;2023-03-12T06:44:16;4.80;99.20
2621;DHT22;1320;48.128;11.592;2023-03-12T06:46:42;4.90;99.40
2621;DHT22;1320;48.128;11.592;2023-03-12T06:49:10;4.90;99.00
2621;DHT22;1320;48.128;11.592;2023-03-12T06:51:36;5.00;99.00
2621;DHT22;1320;48.128;11.592;2023-03-12T06:54:01;5.10;99.00
2621;DHT22;1320;48.128;11.592;2023-03-12T06:56:28;5.20;99.00
2621;DHT22;1320;48.128;11.592;2023-03-12T06:58:54;5.30;99.10
2621;DHT22;1320;48.128;11.592;2023-03-12T07:01:20;5.30;99.00
2621;DHT22;1320;48.128;11.592;2023-03-12T07:03:46;5.40;99.00
2621;DHT22;1320;48.128;11.592;2023-03-12T07:06:17;5.50;99.10
2621;DHT22;1320;48.128;11.592;2023-03-12T07:08:43;5.50;99.20
2621;DHT22;1320;48.128;11.592;2023-03-12T07:11:09;5.50;99.40
2621;DHT22;1320;48.128;11.592;2023-03-12T07:13:35;5.50;99.70
2621;DHT22;1320;48.128;11.592;2023-03-12T07:16:01;5.60;99.90
2621;DHT22;1320;48.128;11.592;2023-03-12T07:18:27;5.50;99.90
2621;DHT22;1320;48.128;11.592;2023-03-12T07:20:53;5.60;99.90
2621;DHT22;1320;48.128;11.592;2023-03-12T07:23:19;5.60;99.90
2621;DHT22;1320;48.128;11.592;2023-03-12T07:25:45;5.70;99.90
2621;DHT22;1320;48.128;11.592;2023-03-12T07:28:13;5.80;99.90
2621;DHT22;1320;48.128;11.592;2023-03-12T07:31:01;5.80;99.90
2621;DHT22;1320;48.128;11.592;2023-03-12T07:33:27;5.70;99.90
2621;DHT22;1320;48.128;11.592;2023-03-12T07:35:53;5.70;99.90
2621;DHT22;1320;48.128;11.592;2023-03-12T07:38:18;5.70;99.90
2621;DHT22;1320;48.128;11.592;2023-03-12T07:40:44;5.80;99.90
2621;DHT22;1320;48.128;11.592;2023-03-12T07:43:14;5.80;99.90
2621;DHT22;1320;48.128;11.592;2023-03-12T07:45:40;5.90;99.90
2621;DHT22;1320;48.128;11.592;2023-03-12T07:48:06;6.00;99.90
2621;DHT22;1320;48.128;11.592;2023-03-12T07:50:33;6.10;99.90
2621;DHT22;1320;48.128;11.592;2023-03-12T07:52:58;6.20;99.90
2621;DHT22;1320;48.128;11.592;2023-03-12T07:55:24;6.30;99.90
2621;DHT22;1320;48.128;11.592;2023-03-12T07:57:50;6.30;99.90
2621;DHT22;1320;48.128;11.592;2023-03-12T08:00:15;6.40;99.90
2621;DHT22;1320;48.128;11.592;2023-03-12T08:02:42;6.60;99.90
2621;DHT22;1320;48.128;11.592;2023-03-12T08:05:08;6.70;99.90
2621;DHT22;1320;48.128;11.592;2023-03-12T08:07:34;6.70;99.90
2621;DHT22;1320;48.128;11.592;2023-03-12T08:10:01;6.70;99.90
2621;DHT22;1320;48.128;11.592;2023-03-12T08:12:27;6.70;99.90
2621;DHT22;1320;48.128;11.592;2023-03-12T08:14:53;6.70;99.90
2621;DHT22;1320;48.128;11.592;2023-03-12T08:17:19;6.60;99.90
2621;DHT22;1320;48.128;11.592;2023-03-12T08:19:44;6.70;99.90
2621;DHT22;1320;48.128;11.592;2023-03-12T08:22:10;6.80;99.90
2621;DHT22;1320;48.128;11.592;2023-03-12T08:24:36;6.80;99.90
2621;DHT22;1320;48.128;11.592;2023-03-12T08:27:01;6.80;99.90
2621;DHT22;1320;48.128;11.592;2023-03-12T08:29:27;6.80;99.90
2621;DHT22;1320;48.128;11.592;2023-03-12T08:31:54;6.80;99.90
2621;DHT22;1320;48.128;11.592;2023-03-12T08:34:20;6.80;99.90
2621;DHT22;1320;48.128;11.592;2023-03-12T08:36:45;6.90;99.90
2621;DHT22;1320;48.128;11.592;2023-03-12T08:39:11;6.90;99.90
2621;DHT22;1320;48.128;11.592;2023-03-12T08:41:36;7.00;99.90
2621;DHT22;1320;48.128;11.592;2023-03-12T08:44:02;7.00;99.90
2621;DHT22;1320;48.128;11.592;2023-03-12T08:46:28;6.90;99.90
2621;DHT22;1320;48.128;11.592;2023-03-12T08:48:54;6.90;99.90
2621;DHT22;1320;48.128;11.592;2023-03-12T08:51:19;7.00;99.90
2621;DHT22;1320;48.128;11.592;2023-03-12T08:53:46;7.00;99.90
2621;DHT22;1320;48.128;11.592;2023-03-12T08:56:11;7.00;99.90
2621;DHT22;1320;48.128;11.592;2023-03-12T08:58:37;7.00;99.90
2621;DHT22;1320;48.128;11.592;2023-03-12T09:01:08;7.00;99.90
2621;DHT22;1320;48.128;11.592;2023-03-12T09:03:33;6.90;99.90
2621;DHT22;1320;48.128;11.592;2023-03-12T09:06:11;6.90;99.90
2621;DHT22;1320;48.128;11.592;2023-03-12T09:08:40;6.90;99.90
2621;DHT22;1320;48.128;11.592;2023-03-12T09:11:08;6.90;99.90
2621;DHT22;1320;48.128;11.592;2023-03-12T09:13:34;6.90;99.90
2621;DHT22;1320;48.128;11.592;2023-03-12T09:16:01;7.00;99.90
2621;DHT22;1320;48.128;11.592;2023-03-12T09:18:28;7.10;99.90
2621;DHT22;1320;48.128;11.592;2023-03-12T09:20:54;7.20;99.90
2621;DHT22;1320;48.128;11.592;2023-03-12T09:23:19;7.30;99.90
2621;DHT22;1320;48.128;11.592;2023-03-12T09:25:45;7.30;99.90
2621;DHT22;1320;48.128;11.592;2023-03-12T09:28:11;7.30;99.90
2621;DHT22;1320;48.128;11.592;2023-03-12T09:30:37;7.40;99.90
2621;DHT22;1320;48.128;11.592;2023-03-12T09:33:02;7.40;99.90
2621;DHT22;1320;48.128;11.592;2023-03-12T09:35:28;7.30;99.90
2621;DHT22;1320;48.128;11.592;2023-03-12T09:37:56;7.30;99.90
2621;DHT22;1320;48.128;11.592;2023-03-12T09:40:23;7.30;99.90
2621;DHT22;1320;48.128;11.592;2023-03-12T09:42:52;7.20;99.90
2621;DHT22;1320;48.128;11.592;2023-03-12T09:45:37;7.00;99.90
2621;DHT22;1320;48.128;11.592;2023-03-12T09:48:06;6.90;99.90
2621;DHT22;1320;48.128;11.592;2023-03-12T09:50:40;6.80;99.90
2621;DHT22;1320;48.128;11.592;2023-03-12T09:55:47;6.60;99.90
2621;DHT22;1320;48.128;11.592;2023-03-12T10:00:47;6.30;99.90
2621;DHT22;1320;48.128;11.592;2023-03-12T10:11:41;6.20;99.90
2621;DHT22;1320;48.128;11.592;2023-03-12T10:14:42;6.20;99.90
2621;DHT22;1320;48.128;11.592;2023-03-12T10:26:37;5.90;99.90
2621;DHT22;1320;48.128;11.592;2023-03-12T10:28:59;6.00;99.90
2621;DHT22;1320;48.128;11.592;2023-03-12T10:31:33;6.00;99.90
2621;DHT22;1320;48.128;11.592;2023-03-12T10:34:01;6.00;99.90
2621;DHT22;1320;48.128;11.592;2023-03-12T10:38:53;6.00;99.90
2621;DHT22;1320;48.128;11.592;2023-03-12T10:41:24;5.90;99.90
2621;DHT22;1320;48.128;11.592;2023-03-12T10:43:50;5.90;99.90
2621;DHT22;1320;48.128;11.592;2023-03-12T10:54:32;5.80;99.90
2621;DHT22;1320;48.128;11.592;2023-03-12T10:56:58;5.90;99.90
2621;DHT22;1320;48.128;11.592;2023-03-12T10:59:28;5.90;99.90
2621;DHT22;1320;48.128;11.592;2023-03-12T11:01:54;5.90;99.90
2621;DHT22;1320;48.128;11.592;2023-03-12T11:09:38;6.20;99.90
2621;DHT22;1320;48.128;11.592;2023-03-12T11:12:30;6.20;99.90
2621;DHT22;1320;48.128;11.592;2023-03-12T11:14:57;6.20;99.90
2621;DHT22;1320;48.128;11.592;2023-03-12T11:17:25;6.20;99.90
2621;DHT22;1320;48.128;11.592;2023-03-12T11:19:52;6.20;99.90
2621;DHT22;1320;48.128;11.592;2023-03-12T11:22:32;6.30;99.90
2621;DHT22;1320;48.128;11.592;2023-03-12T11:25:00;6.50;99.90
2621;DHT22;1320;48.128;11.592;2023-03-12T11:27:36;6.50;99.90
2621;DHT22;1320;48.128;11.592;2023-03-12T11:30:09;6.50;99.90
2621;DHT22;1320;48.128;11.592;2023-03-12T11:32:42;6.60;99.90
2621;DHT22;1320;48.128;11.592;2023-03-12T11:35:10;6.70;99.90
2621;DHT22;1320;48.128;11.592;2023-03-12T11:38:15;6.70;99.90
2621;DHT22;1320;48.128;11.592;2023-03-12T11:44:20;7.00;99.90
2621;DHT22;1320;48.128;11.592;2023-03-12T11:47:11;7.10;99.90
2621;DHT22;1320;48.128;11.592;2023-03-12T12:03:43;7.50;99.90
2621;DHT22;1320;48.128;11.592;2023-03-12T12:17:23;7.80;99.90
2621;DHT22;1320;48.128;11.592;2023-03-12T12:22:35;7.90;99.90
2621;DHT22;1320;48.128;11.592;2023-03-12T12:25:14;8.00;99.90
2621;DHT22;1320;48.128;11.592;2023-03-12T12:33:33;8.20;99.90
2621;DHT22;1320;48.128;11.592;2023-03-12T12:36:03;8.20;99.90
2621;DHT22;1320;48.128;11.592;2023-03-12T12:38:48;8.30;99.90
2621;DHT22;1320;48.128;11.592;2023-03-12T12:41:24;8.40;99.90
2621;DHT22;1320;48.128;11.592;2023-03-12T12:43:56;8.50;99.90
2621;DHT22;1320;48.128;11.592;2023-03-12T12:46:34;8.60;99.90
2621;DHT22;1320;48.128;11.592;2023-03-12T12:49:03;8.70;99.90
2621;DHT22;1320;48.128;11.592;2023-03-12T12:51:33;8.90;99.90
2621;DHT22;1320;48.128;11.592;2023-03-12T12:57:02;9.00;99.90
2621;DHT22;1320;48.128;11.592;2023-03-12T12:59:31;9.00;99.90
2621;DHT22;1320;48.128;11.592;2023-03-12T13:02:02;9.00;99.90
2621;DHT22;1320;48.128;11.592;2023-03-12T13:07:27;9.10;99.90
2621;DHT22;1320;48.128;11.592;2023-03-12T13:18:03;9.30;99.90
2621;DHT22;1320;48.128;11.592;2023-03-12T13:20:39;9.40;99.90
2621;DHT22;1320;48.128;11.592;2023-03-12T13:28:35;9.70;99.90
2621;DHT22;1320;48.128;11.592;2023-03-12T13:33:47;10.00;99.90
2621;DHT22;1320;48.128;11.592;2023-03-12T13:39:21;10.20;99.90
2621;DHT22;1320;48.128;11.592;2023-03-12T13:41:56;10.20;99.90
2621;DHT22;1320;48.128;11.592;2023-03-12T13:46:52;10.40;99.90
2621;DHT22;1320;48.128;11.592;2023-03-12T13:49:26;10.40;99.90
2621;DHT22;1320;48.128;11.592;2023-03-12T13:54:45;10.60;99.90
2621;DHT22;1320;48.128;11.592;2023-03-12T13:59:51;10.90;99.90
2621;DHT22;1320;48.128;11.592;2023-03-12T14:02:33;11.00;99.90
2621;DHT22;1320;48.128;11.592;2023-03-12T14:05:08;11.10;99.90
2621;DHT22;1320;48.128;11.592;2023-03-12T14:07:56;11.10;99.90
2621;DHT22;1320;48.128;11.592;2023-03-12T14:10:31;11.00;99.90
2621;DHT22;1320;48.128;11.592;2023-03-12T14:16:19;11.00;99.90
2621;DHT22;1320;48.128;11.592;2023-03-12T14:18:48;11.00;99.90
2621;DHT22;1320;48.128;11.592;2023-03-12T14:21:16;11.10;99.90
2621;DHT22;1320;48.128;11.592;2023-03-12T14:23:51;11.20;99.90
2621;DHT22;1320;48.128;11.592;2023-03-12T14:26:39;11.30;99.90
2621;DHT22;1320;48.128;11.592;2023-03-12T14:31:47;11.70;99.90
2621;DHT22;1320;48.128;11.592;2023-03-12T14:40:00;12.90;99.90
2621;DHT22;1320;48.128;11.592;2023-03-12T14:42:33;13.30;99.90
2621;DHT22;1320;48.128;11.592;2023-03-12T14:45:12;13.70;99.90
2621;DHT22;1320;48.128;11.592;2023-03-12T14:47:40;13.90;99.90
2621;DHT22;1320;48.128;11.592;2023-03-12T14:50:37;13.90;99.90
2621;DHT22;1320;48.128;11.592;2023-03-12T14:55:41;13.70;99.90
2621;DHT22;1320;48.128;11.592;2023-03-12T14:58:18;13.50;99.90
2621;DHT22;1320;48.128;11.592;2023-03-12T15:00:57;13.30;99.90
2621;DHT22;1320;48.128;11.592;2023-03-12T15:03:24;13.20;99.90
2621;DHT22;1320;48.128;11.592;2023-03-12T15:05:51;13.10;99.90
2621;DHT22;1320;48.128;11.592;2023-03-12T15:08:17;12.90;99.90
2621;DHT22;1320;48.128;11.592;2023-03-12T15:10:57;12.80;99.90
2621;DHT22;1320;48.128;11.592;2023-03-12T15:13:24;12.70;99.90
2621;DHT22;1320;48.128;11.592;2023-03-12T15:15:52;12.60;99.90
2621;DHT22;1320;48.128;11.592;2023-03-12T15:18:25;12.50;99.90
2621;DHT22;1320;48.128;11.592;2023-03-12T15:20:52;12.40;99.90
2621;DHT22;1320;48.128;11.592;2023-03-12T15:23:20;12.30;99.90
2621;DHT22;1320;48.128;11.592;2023-03-12T15:25:47;12.30;99.90
2621;DHT22;1320;48.128;11.592;2023-03-12T15:30:39;12.30;99.90
2621;DHT22;1320;48.128;11.592;2023-03-12T15:35:58;12.20;99.90
2621;DHT22;1320;48.128;11.592;2023-03-12T15:38:25;12.10;99.90
2621;DHT22;1320;48.128;11.592;2023-03-12T15:40:52;12.00;99.90
2621;DHT22;1320;48.128;11.592;2023-03-12T15:43:21;12.00;99.90
2621;DHT22;1320;48.128;11.592;2023-03-12T15:45:59;12.00;99.90
2621;DHT22;1320;48.128;11.592;2023-03-12T15:48:46;12.00;99.90
2621;DHT22;1320;48.128;11.592;2023-03-12T15:51:35;11.90;99.90
2621;DHT22;1320;48.128;11.592;2023-03-12T15:54:24;11.90;99.90
2621;DHT22;1320;48.128;11.592;2023-03-12T15:56:50;11.80;99.90
2621;DHT22;1320;48.128;11.592;2023-03-12T16:01:49;11.80;99.90
2621;DHT22;1320;48.128;11.592;2023-03-12T16:04:15;11.80;99.90
2621;DHT22;1320;48.128;11.592;2023-03-12T16:06:41;11.70;99.90
2621;DHT22;1320;48.128;11.592;2023-03-12T16:09:23;11.70;99.90
2621;DHT22;1320;48.128;11.592;2023-03-12T16:11:51;11.70;99.90
2621;DHT22;1320;48.128;11.592;2023-03-12T16:14:21;11.80;99.90
2621;DHT22;1320;48.128;11.592;2023-03-12T16:16:47;11.70;99.90
2621;DHT22;1320;48.128;11.592;2023-03-12T16:19:21;11.80;99.90
2621;DHT22;1320;48.128;11.592;2023-03-12T16:21:47;11.80;99.90
2621;DHT22;1320;48.128;11.592;2023-03-12T16:24:14;11.70;99.90
2621;DHT22;1320;48.128;11.592;2023-03-12T16:26:54;11.70;99.90
2621;DHT22;1320;48.128;11.592;2023-03-12T16:29:25;11.70;99.90
2621;DHT22;1320;48.128;11.592;2023-03-12T16:31:54;11.70;99.90
2621;DHT22;1320;48.128;11.592;2023-03-12T16:34:20;11.70;99.90
2621;DHT22;1320;48.128;11.592;2023-03-12T16:36:46;11.70;99.90
2621;DHT22;1320;48.128;11.592;2023-03-12T16:39:11;11.60;99.90
2621;DHT22;1320;48.128;11.592;2023-03-12T16:41:37;11.60;99.90
2621;DHT22;1320;48.128;11.592;2023-03-12T16:44:05;11.60;99.90
2621;DHT22;1320;48.128;11.592;2023-03-12T16:46:32;11.60;99.90
2621;DHT22;1320;48.128;11.592;2023-03-12T16:48:58;11.60;99.90
2621;DHT22;1320;48.128;11.592;2023-03-12T16:51:25;11.50;99.90
2621;DHT22;1320;48.128;11.592;2023-03-12T16:53:53;11.50;99.90
2621;DHT22;1320;48.128;11.592;2023-03-12T16:56:21;11.50;99.90
2621;DHT22;1320;48.128;11.592;2023-03-12T16:58:48;11.40;99.90
2621;DHT22;1320;48.128;11.592;2023-03-12T17:01:19;11.40;99.90
2621;DHT22;1320;48.128;11.592;2023-03-12T17:03:46;11.40;99.90
2621;DHT22;1320;48.128;11.592;2023-03-12T17:06:21;11.30;99.90
2621;DHT22;1320;48.128;11.592;2023-03-12T17:08:47;11.30;99.90
2621;DHT22;1320;48.128;11.592;2023-03-12T17:11:25;11.30;99.90
2621;DHT22;1320;48.128;11.592;2023-03-12T17:14:01;11.30;99.90
2621;DHT22;1320;48.128;11.592;2023-03-12T17:16:28;11.20;99.90
2621;DHT22;1320;48.128;11.592;2023-03-12T17:18:53;11.20;99.90
2621;DHT22;1320;48.128;11.592;2023-03-12T17:21:19;11.10;99.90
2621;DHT22;1320;48.128;11.592;2023-03-12T17:23:46;11.10;99.90
2621;DHT22;1320;48.128;11.592;2023-03-12T17:26:12;11.00;99.90
2621;DHT22;1320;48.128;11.592;2023-03-12T17:28:38;11.00;99.90
2621;DHT22;1320;48.128;11.592;2023-03-12T17:31:04;11.00;99.90
2621;DHT22;1320;48.128;11.592;2023-03-12T17:33:30;10.90;99.90
2621;DHT22;1320;48.128;11.592;2023-03-12T17:36:04;10.80;99.90
2621;DHT22;1320;48.128;11.592;2023-03-12T17:38:30;10.80;99.90
2621;DHT22;1320;48.128;11.592;2023-03-12T17:40:57;10.70;99.90
2621;DHT22;1320;48.128;11.592;2023-03-12T17:43:23;10.70;99.90
2621;DHT22;1320;48.128;11.592;2023-03-12T17:45:49;10.60;99.90
2621;DHT22;1320;48.128;11.592;2023-03-12T17:48:16;10.60;99.90
2621;DHT22;1320;48.128;11.592;2023-03-12T17:50:42;10.60;99.90
2621;DHT22;1320;48.128;11.592;2023-03-12T17:53:08;10.50;99.90
2621;DHT22;1320;48.128;11.592;2023-03-12T17:55:35;10.50;99.90
2621;DHT22;1320;48.128;11.592;2023-03-12T17:58:01;10.50;99.90
2621;DHT22;1320;48.128;11.592;2023-03-12T18:00:28;10.60;99.90
2621;DHT22;1320;48.128;11.592;2023-03-12T18:02:54;10.60;99.90
2621;DHT22;1320;48.128;11.592;2023-03-12T18:05:19;10.60;99.90
2621;DHT22;1320;48.128;11.592;2023-03-12T18:07:48;10.60;99.90
2621;DHT22;1320;48.128;11.592;2023-03-12T18:10:16;10.60;99.90
2621;DHT22;1320;48.128;11.592;2023-03-12T18:12:41;10.60;99.90
2621;DHT22;1320;48.128;11.592;2023-03-12T18:15:09;10.60;99.90
2621;DHT22;1320;48.128;11.592;2023-03-12T18:17:38;10.60;99.90
2621;DHT22;1320;48.128;11.592;2023-03-12T18:20:04;10.50;99.90
2621;DHT22;1320;48.128;11.592;2023-03-12T18:22:40;10.50;99.90